sensor_id;sensor_type;location;lat;lon;timestamp;pressure;altitude;pressure_sealevel;temperature;humidity
54236;BME280;40151;43.606;1.472;2023-05-11T00:01:07;99792.25;;;20.56;53.22
54236;BME280;40151;43.606;1.472;2023-05-11T00:03:34;99791.41;;;20.55;52.98
54236;BME280;40151;43.606;1.472;2023-05-11T00:05:59;99797.66;;;20.54;52.95
54236;BME280;40151;43.606;1.472;2023-05-11T00:08:25;99785.31;;;20.53;53.22
54236;BME280;40151;43.606;1.472;2023-05-11T00:10:51;99780.97;;;20.52;53.03
54236;BME280;40151;43.606;1.472;2023-05-11T00:13:16;99791.41;;;20.55;52.96
54236;BME280;40151;43.606;1.472;2023-05-11T00:15:42;99787.13;;;20.52;53.20
54236;BME280;40151;43.606;1.472;2023-05-11T00:18:07;99788.91;;;20.52;52.92
54236;BME280;40151;43.606;1.472;2023-05-11T00:20:33;99785.41;;;20.51;52.89
54236;BME280;40151;43.606;1.472;2023-05-11T00:22:58;99788.16;;;20.50;53.06
54236;BME280;40151;43.606;1.472;2023-05-11T00:25:23;99784.72;;;20.48;53.05
54236;BME280;40151;43.606;1.472;2023-05-11T00:27:49;99783.88;;;20.47;52.83
54236;BME280;40151;43.606;1.472;2023-05-11T00:30:15;99784.72;;;20.48;52.78
54236;BME280;40151;43.606;1.472;2023-05-11T00:32:41;99779.50;;;20.46;52.99
54236;BME280;40151;43.606;1.472;2023-05-11T00:35:08;99777.69;;;20.47;52.68
54236;BME280;40151;43.606;1.472;2023-05-11T00:37:34;99776.84;;;20.46;52.91
54236;BME280;40151;43.606;1.472;2023-05-11T00:39:59;99774.28;;;20.45;52.69
54236;BME280;40151;43.606;1.472;2023-05-11T00:42:24;99768.97;;;20.45;52.87
54236;BME280;40151;43.606;1.472;2023-05-11T00:44:50;99776.16;;;20.43;52.74
54236;BME280;40151;43.606;1.472;2023-05-11T00:47:16;99777.00;;;20.43;52.63
54236;BME280;40151;43.606;1.472;2023-05-11T00:49:41;99772.56;;;20.44;52.68
54236;BME280;40151;43.606;1.472;2023-05-11T00:52:08;99765.56;;;20.43;52.70
54236;BME280;40151;43.606;1.472;2023-05-11T00:54:34;99761.19;;;20.42;52.79
54236;BME280;40151;43.606;1.472;2023-05-11T00:57:00;99757.00;;;20.37;52.84
54236;BME280;40151;43.606;1.472;2023-05-11T00:59:26;99754.28;;;20.39;52.85
54236;BME280;40151;43.606;1.472;2023-05-11T01:01:52;99760.41;;;20.39;52.73
54236;BME280;40151;43.606;1.472;2023-05-11T01:04:17;99754.28;;;20.39;52.71
54236;BME280;40151;43.606;1.472;2023-05-11T01:06:48;99751.69;;;20.37;52.87
54236;BME280;40151;43.606;1.472;2023-05-11T01:09:34;99755.13;;;20.39;52.61
54236;BME280;40151;43.606;1.472;2023-05-11T01:12:10;99746.41;;;20.37;52.64
54236;BME280;40151;43.606;1.472;2023-05-11T01:14:44;99747.50;;;20.33;52.83
54236;BME280;40151;43.606;1.472;2023-05-11T01:17:19;99752.78;;;20.33;52.71
54236;BME280;40151;43.606;1.472;2023-05-11T01:19:52;99755.44;;;20.33;52.81
54236;BME280;40151;43.606;1.472;2023-05-11T01:27:43;99751.16;;;20.31;52.72
54236;BME280;40151;43.606;1.472;2023-05-11T01:30:23;99750.31;;;20.30;52.65
54236;BME280;40151;43.606;1.472;2023-05-11T01:32:56;99751.16;;;20.31;52.63
54236;BME280;40151;43.606;1.472;2023-05-11T01:35:24;99748.59;;;20.29;52.79
54236;BME280;40151;43.606;1.472;2023-05-11T01:37:54;99747.75;;;20.29;52.71
54236;BME280;40151;43.606;1.472;2023-05-11T01:40:23;99751.34;;;20.28;52.64
54236;BME280;40151;43.606;1.472;2023-05-11T01:42:56;99750.47;;;20.27;52.73
54236;BME280;40151;43.606;1.472;2023-05-11T01:45:25;99747.91;;;20.25;52.60
54236;BME280;40151;43.606;1.472;2023-05-11T01:47:52;99745.34;;;20.24;52.57
54236;BME280;40151;43.606;1.472;2023-05-11T01:50:21;99737.41;;;20.24;52.76
54236;BME280;40151;43.606;1.472;2023-05-11T01:52:49;99740.06;;;20.24;52.75
54236;BME280;40151;43.606;1.472;2023-05-11T01:55:19;99736.47;;;20.25;52.48
54236;BME280;40151;43.606;1.472;2023-05-11T01:57:45;99739.19;;;20.23;52.77
54236;BME280;40151;43.606;1.472;2023-05-11T02:00:11;99737.41;;;20.24;52.77
54236;BME280;40151;43.606;1.472;2023-05-11T02:02:40;99742.78;;;20.22;52.87
54236;BME280;40151;43.606;1.472;2023-05-11T02:05:07;99741.91;;;20.22;52.88
54236;BME280;40151;43.606;1.472;2023-05-11T02:07:34;99741.91;;;20.22;52.61
54236;BME280;40151;43.606;1.472;2023-05-11T02:10:01;99740.97;;;20.23;52.69
54236;BME280;40151;43.606;1.472;2023-05-11T02:12:27;99734.91;;;20.21;52.62
54236;BME280;40151;43.606;1.472;2023-05-11T02:14:54;99735.94;;;20.18;52.58
54236;BME280;40151;43.606;1.472;2023-05-11T02:17:21;99729.69;;;20.19;52.57
54236;BME280;40151;43.606;1.472;2023-05-11T02:19:49;99733.19;;;20.20;52.83
54236;BME280;40151;43.606;1.472;2023-05-11T02:22:15;99729.75;;;20.18;52.63
54236;BME280;40151;43.606;1.472;2023-05-11T02:24:42;99725.41;;;20.17;52.72
54236;BME280;40151;43.606;1.472;2023-05-11T02:27:07;99729.88;;;20.16;52.71
54236;BME280;40151;43.606;1.472;2023-05-11T02:29:33;99724.47;;;20.18;52.85
54236;BME280;40151;43.606;1.472;2023-05-11T02:32:09;99725.31;;;20.18;52.69
54236;BME280;40151;43.606;1.472;2023-05-11T02:34:46;99721.03;;;20.16;52.82
54236;BME280;40151;43.606;1.472;2023-05-11T02:37:17;99724.56;;;20.16;52.78
54236;BME280;40151;43.606;1.472;2023-05-11T02:39:47;99719.34;;;20.15;52.72
54236;BME280;40151;43.606;1.472;2023-05-11T02:42:18;99726.34;;;20.16;52.76
54236;BME280;40151;43.606;1.472;2023-05-11T02:44:53;99718.47;;;20.14;52.76
54236;BME280;40151;43.606;1.472;2023-05-11T02:47:20;99722.94;;;20.14;52.74
54236;BME280;40151;43.606;1.472;2023-05-11T02:49:48;99712.34;;;20.14;52.65
54236;BME280;40151;43.606;1.472;2023-05-11T02:52:19;99723.94;;;20.11;52.84
54236;BME280;40151;43.606;1.472;2023-05-11T02:54:47;99710.78;;;20.09;52.77
54236;BME280;40151;43.606;1.472;2023-05-11T02:57:13;99711.72;;;20.08;52.92
54236;BME280;40151;43.606;1.472;2023-05-11T02:59:39;99709.06;;;20.08;52.72
54236;BME280;40151;43.606;1.472;2023-05-11T03:02:05;99707.38;;;20.07;52.67
54236;BME280;40151;43.606;1.472;2023-05-11T03:04:30;99707.38;;;20.07;52.64
54236;BME280;40151;43.606;1.472;2023-05-11T03:06:55;99705.66;;;20.06;53.00
54236;BME280;40151;43.606;1.472;2023-05-11T03:09:21;99697.88;;;20.03;52.77
54236;BME280;40151;43.606;1.472;2023-05-11T03:11:47;99697.78;;;20.05;52.86
54236;BME280;40151;43.606;1.472;2023-05-11T03:14:13;99696.91;;;20.04;52.79
54236;BME280;40151;43.606;1.472;2023-05-11T03:16:39;99698.63;;;20.05;52.94
54236;BME280;40151;43.606;1.472;2023-05-11T03:19:05;99693.34;;;20.05;52.96
54236;BME280;40151;43.606;1.472;2023-05-11T03:21:33;99692.50;;;20.05;52.71
54236;BME280;40151;43.606;1.472;2023-05-11T03:24:01;99696.91;;;20.04;52.87
54236;BME280;40151;43.606;1.472;2023-05-11T03:26:29;99689.91;;;20.03;52.67
54236;BME280;40151;43.606;1.472;2023-05-11T03:28:56;99694.44;;;20.01;52.97
54236;BME280;40151;43.606;1.472;2023-05-11T03:31:24;99686.50;;;20.01;52.78
54236;BME280;40151;43.606;1.472;2023-05-11T03:33:50;99691.81;;;20.01;52.61
54236;BME280;40151;43.606;1.472;2023-05-11T03:36:16;99698.88;;;20.01;52.79
54236;BME280;40151;43.606;1.472;2023-05-11T03:38:44;99686.50;;;20.01;52.70
54236;BME280;40151;43.606;1.472;2023-05-11T03:41:13;99688.34;;;19.99;52.94
54236;BME280;40151;43.606;1.472;2023-05-11T03:43:39;99686.72;;;19.96;52.93
54236;BME280;40151;43.606;1.472;2023-05-11T03:46:07;99693.84;;;19.96;52.80
54236;BME280;40151;43.606;1.472;2023-05-11T03:48:32;99685.06;;;19.94;52.96
54236;BME280;40151;43.606;1.472;2023-05-11T03:50:58;99685.94;;;19.94;52.67
54236;BME280;40151;43.606;1.472;2023-05-11T03:53:24;99682.41;;;19.94;52.74
54236;BME280;40151;43.606;1.472;2023-05-11T03:55:50;99679.78;;;19.94;52.73
54236;BME280;40151;43.606;1.472;2023-05-11T03:58:17;99679.00;;;19.92;52.84
54236;BME280;40151;43.606;1.472;2023-05-11T04:00:42;99685.06;;;19.94;53.01
54236;BME280;40151;43.606;1.472;2023-05-11T04:03:08;99682.53;;;19.92;52.87
54236;BME280;40151;43.606;1.472;2023-05-11T04:05:34;99679.00;;;19.92;52.75
54236;BME280;40151;43.606;1.472;2023-05-11T04:07:59;99677.31;;;19.91;52.86
54236;BME280;40151;43.606;1.472;2023-05-11T04:10:25;99685.25;;;19.91;52.72
54236;BME280;40151;43.606;1.472;2023-05-11T04:12:51;99676.53;;;19.89;52.87
54236;BME280;40151;43.606;1.472;2023-05-11T04:15:17;99672.06;;;19.89;52.83
54236;BME280;40151;43.606;1.472;2023-05-11T04:17:43;99672.25;;;19.86;52.98
54236;BME280;40151;43.606;1.472;2023-05-11T04:20:08;99673.09;;;19.86;52.88
54236;BME280;40151;43.606;1.472;2023-05-11T04:22:34;99674.78;;;19.88;53.05
54236;BME280;40151;43.606;1.472;2023-05-11T04:24:59;99668.81;;;19.84;53.04
54236;BME280;40151;43.606;1.472;2023-05-11T04:27:25;99665.22;;;19.85;53.08
54236;BME280;40151;43.606;1.472;2023-05-11T04:29:50;99680.09;;;19.88;52.87
54236;BME280;40151;43.606;1.472;2023-05-11T04:32:15;99665.22;;;19.85;52.95
54236;BME280;40151;43.606;1.472;2023-05-11T04:34:41;99663.50;;;19.84;53.13
54236;BME280;40151;43.606;1.472;2023-05-11T04:37:06;99664.38;;;19.84;52.86
54236;BME280;40151;43.606;1.472;2023-05-11T04:39:32;99659.09;;;19.84;52.84
54236;BME280;40151;43.606;1.472;2023-05-11T04:41:59;99664.47;;;19.83;53.01
54236;BME280;40151;43.606;1.472;2023-05-11T04:44:25;99659.09;;;19.84;52.79
54236;BME280;40151;43.606;1.472;2023-05-11T04:46:54;99656.59;;;19.81;53.01
54236;BME280;40151;43.606;1.472;2023-05-11T04:49:19;99668.88;;;19.82;53.15
54236;BME280;40151;43.606;1.472;2023-05-11T04:51:45;99665.41;;;19.82;52.92
54236;BME280;40151;43.606;1.472;2023-05-11T04:54:10;99667.28;;;19.80;52.94
54236;BME280;40151;43.606;1.472;2023-05-11T04:56:36;99665.47;;;19.80;52.93
54236;BME280;40151;43.606;1.472;2023-05-11T04:59:05;99669.94;;;19.80;52.89
54236;BME280;40151;43.606;1.472;2023-05-11T05:01:30;99669.06;;;19.79;53.17
54236;BME280;40151;43.606;1.472;2023-05-11T05:03:56;99675.31;;;19.78;53.00
54236;BME280;40151;43.606;1.472;2023-05-11T05:06:21;99668.44;;;19.74;52.82
54236;BME280;40151;43.606;1.472;2023-05-11T05:08:47;99674.63;;;19.75;53.22
54236;BME280;40151;43.606;1.472;2023-05-11T05:11:12;99680.75;;;19.75;53.24
54236;BME280;40151;43.606;1.472;2023-05-11T05:13:37;99666.75;;;19.73;53.04
54236;BME280;40151;43.606;1.472;2023-05-11T05:16:03;99668.44;;;19.74;52.93
54236;BME280;40151;43.606;1.472;2023-05-11T05:18:28;99679.03;;;19.74;53.17
54236;BME280;40151;43.606;1.472;2023-05-11T05:20:54;99681.69;;;19.74;53.01
54236;BME280;40151;43.606;1.472;2023-05-11T05:23:19;99684.34;;;19.74;53.11
54236;BME280;40151;43.606;1.472;2023-05-11T05:25:45;99679.03;;;19.74;53.06
54236;BME280;40151;43.606;1.472;2023-05-11T05:28:10;99677.34;;;19.73;53.03
54236;BME280;40151;43.606;1.472;2023-05-11T05:30:36;99680.91;;;19.72;53.13
54236;BME280;40151;43.606;1.472;2023-05-11T05:33:01;99679.38;;;19.68;53.05
54236;BME280;40151;43.606;1.472;2023-05-11T05:35:27;99675.78;;;19.69;52.97
54236;BME280;40151;43.606;1.472;2023-05-11T05:37:52;99682.06;;;19.66;53.05
54236;BME280;40151;43.606;1.472;2023-05-11T05:40:18;99681.06;;;19.69;52.98
54236;BME280;40151;43.606;1.472;2023-05-11T05:42:43;99682.94;;;19.67;53.06
54236;BME280;40151;43.606;1.472;2023-05-11T05:45:09;99686.28;;;19.70;54.66
54236;BME280;40151;43.606;1.472;2023-05-11T05:47:34;99686.22;;;19.72;55.92
54236;BME280;40151;43.606;1.472;2023-05-11T05:50:00;99680.75;;;19.75;55.91
54236;BME280;40151;43.606;1.472;2023-05-11T05:52:25;99685.03;;;19.78;55.99
54236;BME280;40151;43.606;1.472;2023-05-11T05:54:51;99682.44;;;19.76;56.14
54236;BME280;40151;43.606;1.472;2023-05-11T05:57:16;99690.38;;;19.76;55.45
54236;BME280;40151;43.606;1.472;2023-05-11T05:59:41;99689.56;;;19.76;55.61
54236;BME280;40151;43.606;1.472;2023-05-11T06:02:07;99697.44;;;19.77;55.25
54236;BME280;40151;43.606;1.472;2023-05-11T06:04:33;99691.34;;;19.75;55.18
54236;BME280;40151;43.606;1.472;2023-05-11T06:06:58;99692.19;;;19.76;55.05
54236;BME280;40151;43.606;1.472;2023-05-11T06:09:24;99686.22;;;19.72;55.24
54236;BME280;40151;43.606;1.472;2023-05-11T06:11:50;99687.91;;;19.73;55.09
54236;BME280;40151;43.606;1.472;2023-05-11T06:14:18;99691.41;;;19.73;54.45
54236;BME280;40151;43.606;1.472;2023-05-11T06:16:44;99686.28;;;19.70;54.74
54236;BME280;40151;43.606;1.472;2023-05-11T06:19:09;99681.75;;;19.72;54.44
54236;BME280;40151;43.606;1.472;2023-05-11T06:21:35;99683.47;;;19.73;54.46
54236;BME280;40151;43.606;1.472;2023-05-11T06:24:00;99684.41;;;19.72;54.51
54236;BME280;40151;43.606;1.472;2023-05-11T06:26:26;99682.63;;;19.73;54.46
54236;BME280;40151;43.606;1.472;2023-05-11T06:28:52;99682.44;;;19.76;54.28
54236;BME280;40151;43.606;1.472;2023-05-11T06:31:18;99685.09;;;19.76;54.17
54236;BME280;40151;43.606;1.472;2023-05-11T06:33:44;99680.75;;;19.75;54.26
54236;BME280;40151;43.606;1.472;2023-05-11T06:36:09;99686.97;;;19.74;54.21
54236;BME280;40151;43.606;1.472;2023-05-11T06:38:35;99686.03;;;19.75;54.15
54236;BME280;40151;43.606;1.472;2023-05-11T06:41:00;99686.03;;;19.75;53.90
54236;BME280;40151;43.606;1.472;2023-05-11T06:43:26;99669.22;;;19.76;54.07
54236;BME280;40151;43.606;1.472;2023-05-11T06:45:51;99677.88;;;19.80;53.93
54236;BME280;40151;43.606;1.472;2023-05-11T06:48:16;99682.31;;;19.79;53.80
54236;BME280;40151;43.606;1.472;2023-05-11T06:50:42;99684.00;;;19.80;53.73
54236;BME280;40151;43.606;1.472;2023-05-11T06:53:07;99684.88;;;19.81;53.87
54236;BME280;40151;43.606;1.472;2023-05-11T06:55:34;99688.38;;;19.81;53.88
54236;BME280;40151;43.606;1.472;2023-05-11T06:58:00;99683.06;;;19.81;53.78
54236;BME280;40151;43.606;1.472;2023-05-11T07:00:25;99685.56;;;19.84;53.70
54236;BME280;40151;43.606;1.472;2023-05-11T07:02:51;99685.41;;;19.88;53.85
54236;BME280;40151;43.606;1.472;2023-05-11T07:05:17;99687.28;;;19.85;53.64
54236;BME280;40151;43.606;1.472;2023-05-11T07:07:42;99692.56;;;19.85;53.69
54236;BME280;40151;43.606;1.472;2023-05-11T07:10:08;99680.28;;;19.84;53.43
54236;BME280;40151;43.606;1.472;2023-05-11T07:12:34;99687.28;;;19.85;53.36
54236;BME280;40151;43.606;1.472;2023-05-11T07:14:59;99675.75;;;19.86;53.52
54236;BME280;40151;43.606;1.472;2023-05-11T07:17:24;99677.63;;;19.84;53.44
54236;BME280;40151;43.606;1.472;2023-05-11T07:19:50;99676.69;;;19.85;53.47
54236;BME280;40151;43.606;1.472;2023-05-11T07:22:17;99685.31;;;19.89;53.48
54236;BME280;40151;43.606;1.472;2023-05-11T07:24:42;99678.38;;;19.86;53.34
54236;BME280;40151;43.606;1.472;2023-05-11T07:27:08;99679.19;;;19.89;53.37
54236;BME280;40151;43.606;1.472;2023-05-11T07:29:33;99673.97;;;19.87;53.41
54236;BME280;40151;43.606;1.472;2023-05-11T07:31:59;99674.78;;;19.88;53.38
54236;BME280;40151;43.606;1.472;2023-05-11T07:34:24;99669.34;;;19.91;53.19
54236;BME280;40151;43.606;1.472;2023-05-11T07:36:50;99665.69;;;19.93;53.22
54236;BME280;40151;43.606;1.472;2023-05-11T07:39:15;99667.34;;;19.96;53.00
54236;BME280;40151;43.606;1.472;2023-05-11T07:41:41;99668.19;;;19.96;53.07
54236;BME280;40151;43.606;1.472;2023-05-11T07:44:06;99669.06;;;19.97;53.06
54236;BME280;40151;43.606;1.472;2023-05-11T07:46:32;99662.91;;;19.96;52.96
54236;BME280;40151;43.606;1.472;2023-05-11T07:48:57;99657.44;;;19.99;52.88
54236;BME280;40151;43.606;1.472;2023-05-11T07:51:23;99659.22;;;19.99;52.89
54236;BME280;40151;43.606;1.472;2023-05-11T07:53:48;99653.84;;;20.01;52.75
54236;BME280;40151;43.606;1.472;2023-05-11T07:56:14;99660.03;;;20.01;52.72
54236;BME280;40151;43.606;1.472;2023-05-11T07:58:39;99651.28;;;19.99;52.87
54236;BME280;40151;43.606;1.472;2023-05-11T08:01:05;99658.13;;;20.03;52.74
54236;BME280;40151;43.606;1.472;2023-05-11T08:03:30;99655.56;;;20.02;52.68
54236;BME280;40151;43.606;1.472;2023-05-11T08:05:55;99653.69;;;20.04;52.60
54236;BME280;40151;43.606;1.472;2023-05-11T08:08:21;99648.41;;;20.04;52.60
54236;BME280;40151;43.606;1.472;2023-05-11T08:10:46;99647.38;;;20.06;52.59
54236;BME280;40151;43.606;1.472;2023-05-11T08:13:12;99640.34;;;20.05;52.55
54236;BME280;40151;43.606;1.472;2023-05-11T08:15:37;99639.50;;;20.05;52.68
54236;BME280;40151;43.606;1.472;2023-05-11T08:18:03;99636.94;;;20.03;52.85
54236;BME280;40151;43.606;1.472;2023-05-11T08:20:28;99636.78;;;20.06;52.65
54236;BME280;40151;43.606;1.472;2023-05-11T08:22:54;99629.75;;;20.05;52.68
54236;BME280;40151;43.606;1.472;2023-05-11T08:25:19;99626.19;;;20.06;52.59
54236;BME280;40151;43.606;1.472;2023-05-11T08:27:45;99623.44;;;20.08;52.80
54236;BME280;40151;43.606;1.472;2023-05-11T08:30:10;99622.41;;;20.10;52.61
54236;BME280;40151;43.606;1.472;2023-05-11T08:32:36;99626.00;;;20.09;52.82
54236;BME280;40151;43.606;1.472;2023-05-11T08:35:02;99628.66;;;20.09;52.49
54236;BME280;40151;43.606;1.472;2023-05-11T08:37:29;99631.31;;;20.09;52.68
54236;BME280;40151;43.606;1.472;2023-05-11T08:39:54;99633.00;;;20.10;52.76
54236;BME280;40151;43.606;1.472;2023-05-11T08:42:23;99641.91;;;20.09;52.61
54236;BME280;40151;43.606;1.472;2023-05-11T08:44:49;99634.91;;;20.08;52.66
54236;BME280;40151;43.606;1.472;2023-05-11T08:47:16;99640.97;;;20.10;52.48
54236;BME280;40151;43.606;1.472;2023-05-11T08:49:42;99628.66;;;20.09;52.75
54236;BME280;40151;43.606;1.472;2023-05-11T08:52:08;99631.31;;;20.09;52.62
54236;BME280;40151;43.606;1.472;2023-05-11T08:54:34;99629.41;;;20.11;52.79
54236;BME280;40151;43.606;1.472;2023-05-11T08:57:00;99632.06;;;20.11;52.68
54236;BME280;40151;43.606;1.472;2023-05-11T08:59:27;99625.06;;;20.10;52.79
54236;BME280;40151;43.606;1.472;2023-05-11T09:01:54;99626.78;;;20.11;52.61
54236;BME280;40151;43.606;1.472;2023-05-11T09:04:21;99622.41;;;20.10;52.70
54236;BME280;40151;43.606;1.472;2023-05-11T09:06:48;99622.34;;;20.12;52.77
54236;BME280;40151;43.606;1.472;2023-05-11T09:09:14;99621.47;;;20.11;52.85
54236;BME280;40151;43.606;1.472;2023-05-11T09:11:40;99629.25;;;20.15;52.60
54236;BME280;40151;43.606;1.472;2023-05-11T09:14:06;99615.25;;;20.12;52.53
54236;BME280;40151;43.606;1.472;2023-05-11T09:16:31;99623.97;;;20.15;52.63
54236;BME280;40151;43.606;1.472;2023-05-11T09:18:59;99628.31;;;20.16;52.64
54236;BME280;40151;43.606;1.472;2023-05-11T09:21:30;99620.38;;;20.16;52.72
54236;BME280;40151;43.606;1.472;2023-05-11T09:23:56;99618.66;;;20.15;52.92
54236;BME280;40151;43.606;1.472;2023-05-11T09:26:24;99622.06;;;20.17;52.81
54236;BME280;40151;43.606;1.472;2023-05-11T09:28:53;99622.06;;;20.17;52.90
54236;BME280;40151;43.606;1.472;2023-05-11T09:36:37;99614.06;;;20.18;52.81
54236;BME280;40151;43.606;1.472;2023-05-11T09:39:03;99610.53;;;20.18;52.63
54236;BME280;40151;43.606;1.472;2023-05-11T09:41:30;99613.19;;;20.18;52.60
54236;BME280;40151;43.606;1.472;2023-05-11T09:44:12;99602.59;;;20.18;52.73
54236;BME280;40151;43.606;1.472;2023-05-11T09:46:40;99604.31;;;20.19;52.69
54236;BME280;40151;43.606;1.472;2023-05-11T09:49:06;99598.06;;;20.20;52.83
54236;BME280;40151;43.606;1.472;2023-05-11T09:51:34;99590.97;;;20.20;52.84
54236;BME280;40151;43.606;1.472;2023-05-11T09:54:02;99598.00;;;20.21;52.75
54236;BME280;40151;43.606;1.472;2023-05-11T09:56:50;99582.19;;;20.20;52.77
54236;BME280;40151;43.606;1.472;2023-05-11T09:59:35;99584.75;;;20.21;52.94
54236;BME280;40151;43.606;1.472;2023-05-11T10:04:46;99589.03;;;20.24;52.70
54236;BME280;40151;43.606;1.472;2023-05-11T10:07:32;99586.47;;;20.22;53.03
54236;BME280;40151;43.606;1.472;2023-05-11T10:09:59;99581.91;;;20.24;52.88
54236;BME280;40151;43.606;1.472;2023-05-11T10:12:26;99582.78;;;20.25;52.78
54236;BME280;40151;43.606;1.472;2023-05-11T10:15:00;99582.78;;;20.25;52.72
54236;BME280;40151;43.606;1.472;2023-05-11T10:17:27;99577.47;;;20.25;52.49
54236;BME280;40151;43.606;1.472;2023-05-11T10:19:54;99571.31;;;20.24;52.53
54236;BME280;40151;43.606;1.472;2023-05-11T10:22:21;99565.00;;;20.27;52.66
54236;BME280;40151;43.606;1.472;2023-05-11T10:24:47;99562.34;;;20.27;52.71
54236;BME280;40151;43.606;1.472;2023-05-11T10:27:13;99559.69;;;20.27;52.52
54236;BME280;40151;43.606;1.472;2023-05-11T10:29:38;99556.09;;;20.28;52.56
54236;BME280;40151;43.606;1.472;2023-05-11T10:32:06;99549.84;;;20.29;52.79
54236;BME280;40151;43.606;1.472;2023-05-11T10:34:32;99553.38;;;20.30;52.68
54236;BME280;40151;43.606;1.472;2023-05-11T10:36:59;99546.16;;;20.32;52.75
54236;BME280;40151;43.606;1.472;2023-05-11T10:39:27;99542.59;;;20.33;52.56
54236;BME280;40151;43.606;1.472;2023-05-11T10:50:06;99532.69;;;20.36;52.60
54236;BME280;40151;43.606;1.472;2023-05-11T10:58:32;99530.78;;;20.38;52.66
54236;BME280;40151;43.606;1.472;2023-05-11T11:01:22;99530.78;;;20.38;52.63
54236;BME280;40151;43.606;1.472;2023-05-11T11:04:01;99532.50;;;20.39;52.55
54236;BME280;40151;43.606;1.472;2023-05-11T11:06:30;99517.44;;;20.40;52.32
54236;BME280;40151;43.606;1.472;2023-05-11T11:08:57;99520.94;;;20.41;52.44
54236;BME280;40151;43.606;1.472;2023-05-11T11:11:42;99514.69;;;20.42;52.60
54236;BME280;40151;43.606;1.472;2023-05-11T11:14:11;99505.81;;;20.43;52.48
54236;BME280;40151;43.606;1.472;2023-05-11T11:16:36;99508.47;;;20.43;52.43
54236;BME280;40151;43.606;1.472;2023-05-11T11:21:53;99507.53;;;20.44;52.26
54236;BME280;40151;43.606;1.472;2023-05-11T11:27:03;99503.06;;;20.44;52.26
54236;BME280;40151;43.606;1.472;2023-05-11T11:29:29;99496.94;;;20.44;52.42
54236;BME280;40151;43.606;1.472;2023-05-11T11:34:50;99502.22;;;20.44;52.05
54236;BME280;40151;43.606;1.472;2023-05-11T11:37:16;99491.63;;;20.44;52.03
54236;BME280;40151;43.606;1.472;2023-05-11T11:42:11;99492.38;;;20.46;52.01
54236;BME280;40151;43.606;1.472;2023-05-11T11:44:38;99495.03;;;20.46;51.80
54236;BME280;40151;43.606;1.472;2023-05-11T11:47:21;99492.28;;;20.47;52.00
54236;BME280;40151;43.606;1.472;2023-05-11T11:49:49;99478.19;;;20.47;51.88
54236;BME280;40151;43.606;1.472;2023-05-11T11:54:54;99484.25;;;20.49;52.00
54236;BME280;40151;43.606;1.472;2023-05-11T12:00:02;99485.09;;;20.49;51.88
54236;BME280;40151;43.606;1.472;2023-05-11T12:02:29;99480.66;;;20.50;51.76
54236;BME280;40151;43.606;1.472;2023-05-11T12:04:57;99474.41;;;20.51;51.75
54236;BME280;40151;43.606;1.472;2023-05-11T12:07:25;99478.75;;;20.52;51.71
54236;BME280;40151;43.606;1.472;2023-05-11T12:09:51;99468.16;;;20.52;51.64
54236;BME280;40151;43.606;1.472;2023-05-11T12:12:18;99478.69;;;20.53;51.60
54236;BME280;40151;43.606;1.472;2023-05-11T12:14:45;99472.50;;;20.53;51.76
54236;BME280;40151;43.606;1.472;2023-05-11T12:17:14;99470.66;;;20.55;51.99
54236;BME280;40151;43.606;1.472;2023-05-11T12:19:43;99466.28;;;20.54;51.81
54236;BME280;40151;43.606;1.472;2023-05-11T12:22:10;99469.69;;;20.56;51.59
54236;BME280;40151;43.606;1.472;2023-05-11T12:24:38;99467.03;;;20.56;51.65
54236;BME280;40151;43.606;1.472;2023-05-11T12:27:03;99482.00;;;20.57;51.52
54236;BME280;40151;43.606;1.472;2023-05-11T12:29:29;99472.25;;;20.58;51.53
54236;BME280;40151;43.606;1.472;2023-05-11T12:31:55;99486.34;;;20.58;51.59
54236;BME280;40151;43.606;1.472;2023-05-11T12:34:21;99473.97;;;20.59;51.62
54236;BME280;40151;43.606;1.472;2023-05-11T12:36:51;99480.09;;;20.59;51.70
54236;BME280;40151;43.606;1.472;2023-05-11T12:39:22;99464.19;;;20.59;51.50
54236;BME280;40151;43.606;1.472;2023-05-11T12:41:48;99468.56;;;20.60;51.22
54236;BME280;40151;43.606;1.472;2023-05-11T12:44:15;99472.06;;;20.61;51.41
54236;BME280;40151;43.606;1.472;2023-05-11T12:46:42;99461.38;;;20.62;51.23
54236;BME280;40151;43.606;1.472;2023-05-11T12:49:08;99469.31;;;20.62;51.30
54236;BME280;40151;43.606;1.472;2023-05-11T12:52:09;99475.50;;;20.63;51.55
54236;BME280;40151;43.606;1.472;2023-05-11T12:54:40;99470.09;;;20.64;51.37
54236;BME280;40151;43.606;1.472;2023-05-11T12:57:22;99479.84;;;20.64;51.32
54236;BME280;40151;43.606;1.472;2023-05-11T12:59:48;99472.72;;;20.64;51.53
54236;BME280;40151;43.606;1.472;2023-05-11T13:02:18;99464.69;;;20.66;51.37
54236;BME280;40151;43.606;1.472;2023-05-11T13:04:45;99464.69;;;20.66;51.57
54236;BME280;40151;43.606;1.472;2023-05-11T13:07:11;99467.25;;;20.68;51.19
54236;BME280;40151;43.606;1.472;2023-05-11T13:09:38;99461.97;;;20.68;51.08
54236;BME280;40151;43.606;1.472;2023-05-11T13:14:36;99469.81;;;20.69;51.17
54236;BME280;40151;43.606;1.472;2023-05-11T13:17:02;99463.56;;;20.70;51.27
54236;BME280;40151;43.606;1.472;2023-05-11T13:19:29;99454.75;;;20.70;51.17
54236;BME280;40151;43.606;1.472;2023-05-11T13:21:55;99451.16;;;20.71;51.04
54236;BME280;40151;43.606;1.472;2023-05-11T13:24:22;99451.16;;;20.71;51.18
54236;BME280;40151;43.606;1.472;2023-05-11T13:26:48;99445.84;;;20.71;50.97
54236;BME280;40151;43.606;1.472;2023-05-11T13:29:13;99440.53;;;20.71;51.13
54236;BME280;40151;43.606;1.472;2023-05-11T13:31:49;99429.94;;;20.71;51.21
54236;BME280;40151;43.606;1.472;2023-05-11T13:34:16;99434.31;;;20.72;51.13
54236;BME280;40151;43.606;1.472;2023-05-11T13:36:41;99430.72;;;20.73;50.99
54236;BME280;40151;43.606;1.472;2023-05-11T13:39:07;99429.78;;;20.74;51.01
54236;BME280;40151;43.606;1.472;2023-05-11T13:41:33;99435.06;;;20.74;50.72
54236;BME280;40151;43.606;1.472;2023-05-11T13:43:58;99438.47;;;20.76;50.99
54236;BME280;40151;43.606;1.472;2023-05-11T13:46:24;99453.56;;;20.75;50.80